Time;durP1;ratioP1;P1;durP2;ratioP2;P2;SDS_P1;SDS_P2;PMS_P1;PMS_P2;Temp;Humidity;BMP_temperature;BMP_pressure;BME280_temperature;BME280_humidity;BME280_pressure;Samples;Min_cycle;Max_cycle;Signal;HPM_P1;HPM_P2
2022/01/20 00:01:39;;;;;;;29.50;20.20;;;4.60;91.30;;;;;;5074571;28;20405;-67
2022/01/20 00:04:14;;;;;;;30.92;20.73;;;4.60;91.40;;;;;;5074619;28;20021;-66
2022/01/20 00:09:41;;;;;;;27.63;20.77;;;4.70;91.40;;;;;;5073752;28;20048;-65
2022/01/20 00:25:49;;;;;;;25.00;18.30;;;4.90;90.90;;;;;;5073097;28;20112;-65
2022/01/20 00:26:07;;;;;;;22.70;16.58;;;4.90;90.70;;;;;;5070546;28;20468;-65
2022/01/20 00:28:45;;;;;;;22.73;16.92;;;5.00;90.50;;;;;;5073607;28;20028;-66
2022/01/20 00:34:31;;;;;;;22.83;16.52;;;5.00;90.00;;;;;;5074171;28;20035;-66
2022/01/20 00:39:29;;;;;;;22.92;15.25;;;5.00;89.40;;;;;;5073268;28;20405;-66
2022/01/20 00:41:55;;;;;;;19.80;14.52;;;5.00;89.30;;;;;;5074237;28;20025;-66
2022/01/20 00:44:22;;;;;;;21.50;14.13;;;5.00;88.20;;;;;;5055906;28;20029;-65
2022/01/20 00:46:48;;;;;;;21.25;14.02;;;5.10;87.90;;;;;;5073199;28;20040;-66
2022/01/20 00:49:13;;;;;;;17.55;13.27;;;5.00;87.70;;;;;;5073704;28;20020;-66
2022/01/20 00:51:39;;;;;;;19.98;14.35;;;5.10;87.50;;;;;;5073057;28;20052;-65
2022/01/20 00:54:05;;;;;;;20.30;14.45;;;5.10;87.70;;;;;;5073540;28;20024;-65
2022/01/20 00:56:31;;;;;;;20.40;14.07;;;5.10;87.10;;;;;;5072941;28;20052;-65
2022/01/20 00:58:56;;;;;;;20.45;13.93;;;5.10;87.50;;;;;;5073391;28;20062;-65
2022/01/20 01:01:24;;;;;;;21.75;13.57;;;5.10;87.40;;;;;;5073474;28;20027;-65
2022/01/20 01:03:49;;;;;;;20.10;13.82;;;5.10;87.20;;;;;;5072937;28;20044;-65
2022/01/20 01:09:01;;;;;;;17.90;13.00;;;5.10;86.90;;;;;;5041635;28;20036;-66
2022/01/20 01:11:27;;;;;;;19.67;13.57;;;5.00;86.90;;;;;;5072694;28;20494;-66
2022/01/20 01:13:55;;;;;;;16.50;12.98;;;5.00;86.60;;;;;;5073189;28;20032;-66
2022/01/20 01:16:24;;;;;;;18.27;12.85;;;5.00;86.50;;;;;;5072937;28;20047;-66
2022/01/20 01:21:46;;;;;;;18.83;13.00;;;5.00;86.60;;;;;;5072490;28;20027;-66
2022/01/20 01:24:11;;;;;;;19.35;12.88;;;5.10;86.60;;;;;;5072953;28;20056;-66
2022/01/20 01:26:37;;;;;;;15.48;11.73;;;5.00;86.40;;;;;;5072517;28;20067;-66
2022/01/20 01:29:16;;;;;;;15.63;11.65;;;5.10;86.50;;;;;;5072676;28;20028;-67
2022/01/20 01:31:41;;;;;;;16.60;11.75;;;5.00;86.30;;;;;;5054529;28;20432;-66
2022/01/20 01:34:13;;;;;;;16.75;12.00;;;5.10;86.20;;;;;;5072688;28;20020;-67
2022/01/20 01:37:05;;;;;;;16.08;11.23;;;5.00;86.20;;;;;;5072245;28;20032;-66
2022/01/20 01:39:31;;;;;;;15.13;11.70;;;5.10;86.20;;;;;;5072051;28;20024;-65
2022/01/20 01:41:58;;;;;;;14.55;10.35;;;5.10;86.10;;;;;;5072444;28;20028;-66
2022/01/20 01:44:30;;;;;;;15.57;10.57;;;5.10;86.00;;;;;;5072539;28;20111;-65
2022/01/20 01:46:58;;;;;;;15.52;10.88;;;5.10;85.90;;;;;;5072498;28;20369;-65
2022/01/20 01:49:24;;;;;;;14.40;11.07;;;5.10;85.90;;;;;;5072604;28;20052;-66
2022/01/20 01:51:50;;;;;;;14.93;10.32;;;5.10;85.60;;;;;;5072055;28;20024;-65
2022/01/20 01:54:17;;;;;;;14.40;10.40;;;5.10;85.50;;;;;;5072242;28;20020;-66
2022/01/20 01:56:46;;;;;;;15.95;10.30;;;5.10;85.30;;;;;;5072142;28;20055;-65
2022/01/20 01:59:12;;;;;;;14.95;10.80;;;5.10;85.20;;;;;;5072219;28;20081;-66
2022/01/20 02:01:38;;;;;;;13.63;10.15;;;5.10;85.20;;;;;;5071640;28;20439;-65
2022/01/20 02:04:16;;;;;;;14.13;10.73;;;5.10;85.10;;;;;;5072342;28;20052;-65
2022/01/20 02:17:59;;;;;;;14.07;10.07;;;5.20;85.30;;;;;;5071500;28;20094;-66
2022/01/20 02:20:25;;;;;;;13.18;9.48;;;5.20;85.10;;;;;;5072209;28;20028;-66
2022/01/20 02:22:51;;;;;;;16.95;9.93;;;5.20;85.20;;;;;;5053623;28;20269;-65
2022/01/20 02:25:18;;;;;;;13.10;9.38;;;5.20;84.90;;;;;;5072097;28;20024;-66
2022/01/20 02:27:44;;;;;;;14.73;9.82;;;5.20;84.70;;;;;;5071649;28;20135;-65
2022/01/20 02:30:10;;;;;;;13.60;9.20;;;5.20;84.70;;;;;;5072145;28;20145;-65
2022/01/20 02:32:35;;;;;;;11.35;9.30;;;5.30;84.60;;;;;;5071657;28;20028;-66
2022/01/20 02:35:03;;;;;;;12.90;8.95;;;5.30;84.60;;;;;;5072184;28;20029;-66
2022/01/20 02:37:29;;;;;;;14.35;8.27;;;5.20;84.60;;;;;;5071684;28;20112;-66
2022/01/20 02:40:31;;;;;;;10.90;8.30;;;5.30;84.30;;;;;;5071445;28;20032;-65
2022/01/20 02:45:35;;;;;;;12.82;8.45;;;5.30;83.60;;;;;;5071266;28;20031;-65
2022/01/20 02:48:00;;;;;;;10.50;7.68;;;5.30;83.20;;;;;;5075956;28;20063;-66
2022/01/20 02:50:26;;;;;;;11.85;7.32;;;5.30;82.60;;;;;;5076295;28;20531;-65
2022/01/20 02:52:51;;;;;;;10.13;7.63;;;5.30;81.80;;;;;;5075063;28;20104;-65
2022/01/20 02:55:17;;;;;;;12.00;7.63;;;5.30;81.70;;;;;;5076068;28;20056;-67
2022/01/20 02:57:43;;;;;;;8.82;6.97;;;5.40;81.30;;;;;;5075319;28;20086;-65
2022/01/20 03:00:09;;;;;;;9.23;6.68;;;5.40;80.90;;;;;;5075558;28;20477;-66
2022/01/20 03:02:35;;;;;;;9.65;6.97;;;5.40;80.70;;;;;;5075311;28;20115;-66
2022/01/20 03:05:00;;;;;;;8.98;6.75;;;5.40;80.70;;;;;;5075490;28;20526;-66
2022/01/20 03:07:26;;;;;;;11.68;6.72;;;5.40;80.40;;;;;;5075669;28;20028;-65
2022/01/20 03:09:52;;;;;;;9.70;6.63;;;5.40;79.50;;;;;;5074996;28;20560;-66
2022/01/20 03:12:17;;;;;;;8.90;6.38;;;5.50;79.40;;;;;;5075527;28;20056;-66
2022/01/20 03:14:43;;;;;;;9.15;6.15;;;5.50;79.10;;;;;;5075033;28;20082;-66
2022/01/20 03:17:09;;;;;;;8.95;6.70;;;5.50;78.70;;;;;;5075351;28;20457;-66
2022/01/20 03:19:34;;;;;;;8.50;5.90;;;5.50;78.10;;;;;;5075354;28;20514;-66
2022/01/20 03:22:00;;;;;;;9.55;5.72;;;5.50;78.00;;;;;;5075178;28;20074;-66
2022/01/20 03:24:26;;;;;;;10.13;6.43;;;5.50;77.60;;;;;;5075311;28;20105;-66
2022/01/20 03:26:51;;;;;;;8.63;5.65;;;5.60;77.30;;;;;;5074643;28;20024;-66
2022/01/20 03:29:17;;;;;;;8.57;5.60;;;5.60;77.60;;;;;;5075359;28;20457;-66
2022/01/20 03:31:43;;;;;;;8.90;6.03;;;5.60;76.90;;;;;;5074191;28;20021;-66
2022/01/20 03:34:08;;;;;;;8.70;5.85;;;5.60;76.90;;;;;;5075080;28;20072;-66
2022/01/20 03:36:35;;;;;;;8.05;5.95;;;5.60;76.90;;;;;;5057022;28;20397;-66
2022/01/20 03:39:03;;;;;;;8.00;5.90;;;5.60;77.00;;;;;;5074455;28;20024;-66
2022/01/20 03:41:28;;;;;;;7.85;5.78;;;5.60;77.20;;;;;;5074677;28;20017;-67
2022/01/20 03:43:54;;;;;;;9.20;6.25;;;5.60;77.10;;;;;;5074216;28;20028;-66
2022/01/20 03:46:20;;;;;;;8.65;6.68;;;5.70;77.00;;;;;;5074758;28;20432;-66
2022/01/20 03:48:53;;;;;;;8.77;6.32;;;5.70;77.00;;;;;;5074288;28;20377;-66
2022/01/20 03:51:22;;;;;;;9.68;6.53;;;5.70;76.90;;;;;;5074966;28;20359;-65
2022/01/20 03:53:51;;;;;;;8.98;6.30;;;5.70;76.60;;;;;;5074267;28;20053;-65
2022/01/20 03:56:18;;;;;;;8.70;5.40;;;5.70;76.70;;;;;;5074629;28;20044;-65
2022/01/20 03:58:44;;;;;;;8.75;6.20;;;5.70;76.70;;;;;;5072794;28;20033;-65
2022/01/20 04:01:10;;;;;;;8.27;5.93;;;5.70;76.60;;;;;;5074352;28;20482;-65
2022/01/20 04:03:36;;;;;;;9.07;6.40;;;5.70;76.70;;;;;;5074567;28;20021;-65
2022/01/20 04:06:01;;;;;;;8.93;5.82;;;5.70;76.70;;;;;;5073874;28;20484;-68
2022/01/20 04:08:32;;;;;;;8.02;5.90;;;5.70;76.90;;;;;;5074205;28;20547;-65
2022/01/20 04:11:06;;;;;;;6.82;5.60;;;5.70;77.00;;;;;;5074015;28;20028;-65
2022/01/20 04:13:32;;;;;;;7.68;6.38;;;5.80;77.00;;;;;;5074128;28;20397;-66
2022/01/20 04:16:12;;;;;;;7.55;5.82;;;5.70;77.00;;;;;;5073857;28;20033;-66
2022/01/20 04:18:38;;;;;;;8.20;6.05;;;5.70;77.20;;;;;;5074194;28;20033;-65
2022/01/20 04:21:03;;;;;;;8.63;5.85;;;5.70;77.50;;;;;;5073704;28;20116;-66
2022/01/20 04:23:30;;;;;;;10.90;6.22;;;5.70;77.70;;;;;;5074206;28;20052;-67
2022/01/20 04:25:56;;;;;;;7.80;6.15;;;5.70;77.90;;;;;;5073657;28;20020;-66
2022/01/20 04:28:22;;;;;;;10.43;5.88;;;5.70;77.90;;;;;;5073867;28;20033;-67
2022/01/20 04:30:48;;;;;;;10.27;5.72;;;5.70;78.10;;;;;;5073563;28;20032;-67
2022/01/20 04:33:14;;;;;;;10.15;6.07;;;5.70;78.10;;;;;;5074095;28;20021;-67
2022/01/20 04:35:39;;;;;;;8.95;5.95;;;5.70;78.30;;;;;;5056107;28;20082;-67
2022/01/20 04:38:24;;;;;;;9.13;6.13;;;5.70;78.40;;;;;;5073326;28;20062;-65
2022/01/20 04:40:50;;;;;;;9.27;5.82;;;5.60;78.50;;;;;;5073489;28;20060;-66
2022/01/20 04:43:16;;;;;;;6.80;5.10;;;5.70;78.80;;;;;;5073966;28;20461;-66
2022/01/20 04:45:56;;;;;;;6.25;5.30;;;5.70;78.80;;;;;;5073727;28;20054;-66
2022/01/20 04:48:42;;;;;;;7.57;6.10;;;5.70;79.00;;;;;;5073823;28;20338;-66
2022/01/20 04:59:20;;;;;;;10.65;6.60;;;5.60;79.90;;;;;;5073481;28;20044;-65
2022/01/20 05:01:46;;;;;;;9.45;6.10;;;5.70;80.10;;;;;;5072924;28;20400;-65
2022/01/20 05:04:12;;;;;;;8.90;6.20;;;5.60;80.20;;;;;;5073382;28;20449;-65
2022/01/20 05:06:41;;;;;;;8.23;5.57;;;5.70;80.40;;;;;;5073428;28;20035;-65
2022/01/20 05:09:07;;;;;;;9.68;5.50;;;5.70;80.50;;;;;;5072399;28;20454;-65
2022/01/20 05:11:35;;;;;;;7.72;5.63;;;5.60;80.60;;;;;;5055318;28;20032;-65
2022/01/20 05:14:02;;;;;;;8.02;5.65;;;5.60;80.60;;;;;;5072690;28;20108;-66
2022/01/20 05:16:27;;;;;;;8.75;6.25;;;5.60;80.80;;;;;;5072737;28;20094;-66
2022/01/20 05:18:53;;;;;;;8.00;5.13;;;5.60;81.00;;;;;;5072622;28;20032;-65
2022/01/20 05:21:19;;;;;;;7.13;5.43;;;5.60;81.20;;;;;;5072806;28;20027;-66
2022/01/20 05:23:45;;;;;;;7.95;5.22;;;5.60;81.30;;;;;;5072926;28;20028;-66
2022/01/20 05:26:10;;;;;;;6.63;5.20;;;5.60;81.30;;;;;;5071869;28;20078;-65
2022/01/20 05:28:36;;;;;;;7.85;5.45;;;5.60;81.50;;;;;;5072385;28;20496;-66
2022/01/20 05:31:02;;;;;;;10.13;5.30;;;5.60;81.70;;;;;;5071938;28;20025;-66
2022/01/20 05:33:28;;;;;;;6.75;5.30;;;5.60;81.70;;;;;;5072397;28;20051;-66
2022/01/20 05:35:53;;;;;;;6.28;5.18;;;5.60;81.80;;;;;;5072089;28;20054;-65
2022/01/20 05:38:19;;;;;;;7.07;5.05;;;5.50;82.10;;;;;;5072164;28;20028;-65
2022/01/20 05:40:45;;;;;;;7.10;5.03;;;5.50;82.00;;;;;;5072594;28;20181;-65
2022/01/20 05:43:11;;;;;;;6.10;4.57;;;5.60;82.30;;;;;;5072207;28;20028;-66
2022/01/20 05:45:37;;;;;;;6.57;4.90;;;5.50;82.50;;;;;;5072480;28;20031;-66
2022/01/20 05:48:17;;;;;;;7.95;4.72;;;5.50;82.50;;;;;;5054153;28;20466;-66
2022/01/20 05:50:44;;;;;;;7.30;5.07;;;5.50;82.90;;;;;;5072327;28;20112;-66
2022/01/20 05:53:10;;;;;;;7.47;5.10;;;5.40;82.90;;;;;;5071608;28;20508;-66
2022/01/20 05:55:37;;;;;;;6.68;5.05;;;5.40;83.30;;;;;;5072236;28;20115;-66
2022/01/20 05:58:06;;;;;;;7.60;4.78;;;5.40;83.40;;;;;;5071729;28;20055;-66
2022/01/20 06:00:35;;;;;;;7.90;4.85;;;5.40;83.60;;;;;;5071334;28;20052;-67
2022/01/20 06:05:46;;;;;;;6.88;4.47;;;5.40;84.00;;;;;;5072138;28;20031;-66
2022/01/20 06:08:11;;;;;;;6.80;4.03;;;5.40;84.20;;;;;;5071730;28;20028;-66
2022/01/20 06:10:37;;;;;;;5.40;4.57;;;5.40;84.60;;;;;;5072102;28;20028;-66
2022/01/20 06:13:04;;;;;;;6.05;4.15;;;5.40;84.80;;;;;;5071656;28;20029;-66
2022/01/20 06:15:30;;;;;;;6.80;4.25;;;5.40;85.40;;;;;;5071876;28;20020;-67
2022/01/20 06:17:56;;;;;;;7.03;4.60;;;5.40;85.70;;;;;;5071038;28;20527;-67
2022/01/20 06:20:22;;;;;;;7.30;4.15;;;5.40;86.20;;;;;;5071359;28;20130;-67
2022/01/20 06:22:48;;;;;;;6.70;4.43;;;5.30;86.50;;;;;;5071489;28;20028;-67
2022/01/20 06:25:14;;;;;;;7.28;4.55;;;5.30;86.90;;;;;;5071850;28;20099;-66
2022/01/20 06:27:40;;;;;;;6.72;4.20;;;5.30;87.40;;;;;;5071923;28;20031;-66
2022/01/20 06:30:07;;;;;;;6.15;4.22;;;5.30;88.00;;;;;;5071445;28;20067;-66
2022/01/20 06:32:34;;;;;;;5.88;3.97;;;5.30;88.20;;;;;;5071614;28;20112;-66
2022/01/20 06:35:00;;;;;;;6.10;4.30;;;5.30;88.40;;;;;;5071318;28;20111;-66
2022/01/20 06:37:26;;;;;;;6.00;4.22;;;5.20;88.60;;;;;;5071895;28;20029;-67
2022/01/20 06:39:52;;;;;;;7.97;3.88;;;5.20;88.80;;;;;;5071710;28;20476;-66
2022/01/20 06:42:18;;;;;;;6.65;4.30;;;5.20;89.00;;;;;;5071800;28;20025;-65
2022/01/20 06:44:44;;;;;;;6.50;4.50;;;5.20;89.90;;;;;;5072044;28;20021;-66
2022/01/20 06:47:10;;;;;;;6.63;4.63;;;5.20;89.80;;;;;;5071115;28;20330;-66
2022/01/20 06:49:35;;;;;;;7.25;4.40;;;5.20;90.10;;;;;;5071993;28;20040;-66
2022/01/20 06:52:02;;;;;;;8.65;4.43;;;5.20;90.20;;;;;;5053207;28;20029;-66
2022/01/20 06:54:28;;;;;;;4.95;4.10;;;5.20;90.40;;;;;;5072026;28;20351;-66
2022/01/20 06:56:54;;;;;;;7.82;4.68;;;5.20;90.50;;;;;;5071469;28;20051;-66
2022/01/20 06:59:20;;;;;;;8.82;4.95;;;5.20;90.70;;;;;;5071838;28;20206;-67
2022/01/20 07:01:48;;;;;;;7.22;4.55;;;5.10;90.90;;;;;;5071740;28;20035;-67
2022/01/20 07:04:14;;;;;;;6.28;4.85;;;5.10;91.10;;;;;;5071171;28;20032;-67
2022/01/20 07:06:41;;;;;;;7.10;4.55;;;5.10;91.30;;;;;;5071619;28;20390;-67
2022/01/20 07:09:10;;;;;;;7.03;4.28;;;5.10;91.40;;;;;;5071182;28;20107;-66
2022/01/20 07:11:38;;;;;;;4.95;3.97;;;5.10;91.60;;;;;;5071706;28;20373;-67
2022/01/20 07:14:03;;;;;;;6.50;4.30;;;5.10;91.80;;;;;;5070805;28;20378;-66
2022/01/20 07:16:29;;;;;;;5.85;4.65;;;5.10;92.00;;;;;;5071263;28;20050;-67
2022/01/20 07:18:56;;;;;;;5.90;4.65;;;5.10;92.10;;;;;;5071001;28;20028;-66
2022/01/20 07:21:22;;;;;;;9.18;4.10;;;5.10;92.30;;;;;;5071115;28;20052;-66
2022/01/20 07:23:48;;;;;;;4.72;3.85;;;5.10;92.10;;;;;;5053480;28;20059;-67
2022/01/20 07:26:14;;;;;;;5.78;4.10;;;5.10;92.30;;;;;;5070985;28;20110;-66
2022/01/20 07:28:58;;;;;;;4.65;4.07;;;5.00;92.30;;;;;;5071493;28;20433;-66
2022/01/20 07:31:24;;;;;;;6.60;3.70;;;5.00;92.60;;;;;;5071200;28;20534;-67
2022/01/20 07:33:50;;;;;;;5.68;3.58;;;5.00;92.70;;;;;;5056963;28;20037;-66
2022/01/20 07:36:16;;;;;;;5.78;4.25;;;5.00;92.80;;;;;;5056796;28;20029;-67
2022/01/20 07:38:42;;;;;;;6.03;4.13;;;5.00;92.80;;;;;;5074983;28;20033;-67
2022/01/20 07:41:08;;;;;;;5.60;4.35;;;5.00;92.90;;;;;;5074121;28;20099;-67
2022/01/20 07:43:33;;;;;;;6.38;4.07;;;5.00;93.00;;;;;;5074722;28;20021;-67
2022/01/20 07:45:59;;;;;;;7.03;3.97;;;5.00;93.20;;;;;;5074285;28;20024;-66
2022/01/20 07:48:25;;;;;;;5.60;4.47;;;5.00;93.10;;;;;;5074952;28;20040;-67
2022/01/20 07:50:50;;;;;;;5.65;3.78;;;5.00;93.10;;;;;;5074478;28;20095;-68
2022/01/20 07:53:16;;;;;;;5.15;3.25;;;5.00;93.10;;;;;;5073996;28;20035;-67
2022/01/20 07:55:42;;;;;;;4.15;3.28;;;5.00;92.80;;;;;;5074442;28;20055;-67
2022/01/20 07:58:07;;;;;;;6.55;3.85;;;5.00;92.80;;;;;;5074190;28;20119;-67
2022/01/20 08:00:33;;;;;;;4.13;3.20;;;5.00;93.00;;;;;;5074723;28;20031;-68
2022/01/20 08:02:59;;;;;;;3.42;3.00;;;5.10;93.10;;;;;;5073981;28;20056;-67
2022/01/20 08:05:24;;;;;;;5.57;3.33;;;5.00;93.20;;;;;;5074311;28;20043;-66
2022/01/20 08:07:50;;;;;;;4.18;2.85;;;5.00;93.00;;;;;;5074273;28;20033;-66
2022/01/20 08:10:16;;;;;;;3.75;3.15;;;5.00;93.20;;;;;;5073708;28;20183;-67
2022/01/20 08:12:43;;;;;;;4.88;3.58;;;5.10;93.30;;;;;;5074278;28;20519;-67
2022/01/20 08:15:12;;;;;;;3.85;3.00;;;5.10;93.30;;;;;;5073429;28;20385;-66
2022/01/20 08:17:38;;;;;;;7.13;3.45;;;5.10;93.20;;;;;;5074333;28;20093;-66
2022/01/20 08:20:05;;;;;;;7.53;3.17;;;5.10;93.30;;;;;;5073452;28;20059;-65
2022/01/20 08:22:34;;;;;;;4.35;3.20;;;5.10;93.30;;;;;;5074196;28;20029;-66
2022/01/20 08:25:11;;;;;;;3.60;2.80;;;5.10;93.40;;;;;;5073616;28;20531;-66
2022/01/20 08:27:37;;;;;;;4.75;2.85;;;5.10;93.60;;;;;;5074333;28;20454;-67
2022/01/20 08:30:09;;;;;;;3.13;2.63;;;5.10;93.50;;;;;;5073507;28;20021;-67
2022/01/20 08:32:35;;;;;;;3.22;2.63;;;5.10;93.50;;;;;;5073940;28;20422;-65
2022/01/20 08:35:05;;;;;;;4.15;2.95;;;5.10;93.50;;;;;;5055387;28;20105;-65
2022/01/20 08:37:32;;;;;;;4.63;2.53;;;5.10;93.50;;;;;;5073919;28;20121;-66
2022/01/20 08:39:58;;;;;;;4.90;3.53;;;5.20;93.60;;;;;;5055672;28;20029;-66
2022/01/20 08:42:24;;;;;;;5.22;3.50;;;5.20;93.60;;;;;;5073559;28;20439;-67
2022/01/20 08:44:50;;;;;;;4.45;2.90;;;5.20;93.60;;;;;;5072781;28;20024;-67
2022/01/20 08:47:17;;;;;;;5.65;3.83;;;5.20;93.40;;;;;;5073246;28;20028;-66
2022/01/20 08:49:45;;;;;;;3.15;2.75;;;5.20;93.40;;;;;;5073658;28;20020;-66
2022/01/20 08:52:11;;;;;;;7.45;3.17;;;5.20;93.30;;;;;;5073217;28;20028;-66
2022/01/20 08:54:36;;;;;;;4.10;2.60;;;5.10;93.30;;;;;;5073656;28;20016;-66
2022/01/20 08:57:03;;;;;;;4.07;3.20;;;5.10;93.50;;;;;;5073168;28;20127;-66
2022/01/20 08:59:29;;;;;;;4.15;3.15;;;5.10;93.70;;;;;;5073410;28;20456;-66
2022/01/20 09:01:55;;;;;;;4.82;2.92;;;5.10;94.00;;;;;;5073429;28;20454;-66
2022/01/20 09:04:20;;;;;;;3.42;2.42;;;5.10;93.60;;;;;;5072570;28;20033;-66
2022/01/20 09:06:46;;;;;;;4.03;2.75;;;5.10;93.40;;;;;;5073015;28;20028;-66
2022/01/20 09:09:14;;;;;;;3.88;2.85;;;5.10;93.50;;;;;;5073086;28;20021;-66
2022/01/20 09:11:50;;;;;;;3.15;2.35;;;5.10;93.60;;;;;;5072878;28;20089;-67
2022/01/20 09:17:01;;;;;;;5.20;2.80;;;5.10;93.20;;;;;;5072866;28;20124;-66
2022/01/20 09:19:26;;;;;;;6.43;2.83;;;5.10;93.30;;;;;;5072816;28;20540;-66
2022/01/20 09:21:52;;;;;;;4.45;2.78;;;5.10;93.10;;;;;;5072735;28;20025;-67
2022/01/20 09:24:17;;;;;;;3.10;2.40;;;5.10;93.10;;;;;;5072518;28;20445;-67
2022/01/20 09:26:43;;;;;;;3.80;2.63;;;5.20;93.00;;;;;;5072742;28;20112;-67
2022/01/20 09:29:09;;;;;;;4.82;2.53;;;5.20;93.00;;;;;;5072375;28;20071;-67
2022/01/20 09:31:38;;;;;;;4.43;2.28;;;5.20;92.70;;;;;;5072866;28;20032;-66
2022/01/20 09:34:05;;;;;;;3.97;2.47;;;5.20;92.70;;;;;;5072041;28;20021;-65
2022/01/20 09:36:30;;;;;;;3.08;2.28;;;5.30;92.60;;;;;;5072866;28;20028;-66
2022/01/20 09:38:56;;;;;;;5.35;2.80;;;5.30;92.40;;;;;;5072399;28;20144;-66
2022/01/20 09:41:22;;;;;;;3.15;2.38;;;5.40;92.30;;;;;;5072006;28;20534;-66
2022/01/20 09:43:51;;;;;;;4.40;2.22;;;5.40;92.00;;;;;;5072192;28;20021;-68
2022/01/20 09:46:17;;;;;;;3.60;2.33;;;5.40;91.50;;;;;;5071938;28;20031;-67
2022/01/20 09:48:42;;;;;;;3.05;2.33;;;5.40;91.70;;;;;;5072403;28;20032;-68
2022/01/20 09:51:13;;;;;;;4.32;2.42;;;5.50;91.60;;;;;;5071888;28;20021;-67
2022/01/20 09:53:39;;;;;;;3.15;2.28;;;5.40;91.60;;;;;;5072428;28;20122;-66
2022/01/20 09:56:06;;;;;;;5.25;2.55;;;5.50;91.40;;;;;;5071856;28;20434;-65
2022/01/20 09:58:31;;;;;;;3.42;2.50;;;5.50;91.30;;;;;;5072250;28;20112;-66
2022/01/20 10:00:58;;;;;;;4.03;2.28;;;5.50;91.00;;;;;;5072365;28;20533;-67
2022/01/20 10:03:24;;;;;;;3.53;2.72;;;5.50;91.10;;;;;;5071692;28;20266;-67
2022/01/20 10:05:52;;;;;;;3.17;2.55;;;5.50;91.10;;;;;;5072245;28;20473;-67
2022/01/20 10:08:23;;;;;;;3.95;2.30;;;5.50;91.00;;;;;;5071760;28;20035;-68
2022/01/20 10:10:50;;;;;;;4.75;2.20;;;5.60;91.00;;;;;;5072429;28;20354;-67
2022/01/20 10:13:30;;;;;;;3.00;2.58;;;5.60;90.80;;;;;;5071774;28;20346;-65
2022/01/20 10:16:09;;;;;;;3.15;2.47;;;5.60;90.80;;;;;;5072012;28;20032;-66
2022/01/20 10:18:44;;;;;;;2.70;2.30;;;5.60;90.90;;;;;;5071857;28;20050;-66
2022/01/20 10:21:12;;;;;;;6.30;2.58;;;5.60;91.00;;;;;;5071604;28;20024;-65
2022/01/20 10:23:48;;;;;;;4.25;2.50;;;5.60;90.80;;;;;;5054139;28;20104;-65
2022/01/20 10:26:19;;;;;;;3.30;2.10;;;5.60;90.90;;;;;;5071631;28;20025;-68
2022/01/20 10:28:47;;;;;;;2.30;2.10;;;5.60;90.90;;;;;;5072011;28;20071;-66
2022/01/20 10:31:15;;;;;;;2.55;2.35;;;5.60;91.00;;;;;;5071461;28;20373;-65
2022/01/20 10:33:42;;;;;;;3.63;2.80;;;5.60;91.00;;;;;;5072103;28;20021;-67
2022/01/20 10:36:11;;;;;;;5.28;2.60;;;5.60;91.20;;;;;;5071463;28;20028;-66
2022/01/20 10:38:37;;;;;;;4.93;2.90;;;5.60;91.50;;;;;;5071862;28;20028;-67
2022/01/20 10:41:04;;;;;;;3.78;2.60;;;5.60;91.40;;;;;;5072154;28;20354;-67
2022/01/20 10:43:33;;;;;;;4.95;2.45;;;5.70;91.30;;;;;;5071390;28;20377;-66
2022/01/20 10:46:08;;;;;;;3.88;2.80;;;5.70;91.20;;;;;;5071839;28;20024;-66
2022/01/20 10:48:34;;;;;;;4.47;2.80;;;5.70;91.20;;;;;;5053777;28;20101;-67
2022/01/20 10:50:59;;;;;;;4.40;2.60;;;5.80;91.20;;;;;;5071558;28;20162;-67
2022/01/20 10:53:25;;;;;;;5.10;2.88;;;5.90;91.00;;;;;;5071295;28;20477;-67
2022/01/20 10:56:02;;;;;;;3.83;2.60;;;6.00;90.70;;;;;;5071664;28;20093;-66
2022/01/20 10:58:28;;;;;;;3.08;2.47;;;6.10;90.20;;;;;;5071185;28;20492;-67
2022/01/20 11:00:55;;;;;;;3.20;2.50;;;6.20;90.10;;;;;;5071562;28;20100;-68
2022/01/20 11:03:22;;;;;;;4.63;2.70;;;6.30;87.80;;;;;;5071020;28;20040;-68
2022/01/20 11:05:49;;;;;;;3.00;2.58;;;6.30;87.60;;;;;;5071458;28;20032;-67
2022/01/20 11:08:15;;;;;;;5.63;2.40;;;6.40;86.30;;;;;;5073660;28;20492;-66
2022/01/20 11:10:42;;;;;;;4.50;2.58;;;6.50;84.80;;;;;;5075496;28;20112;-67
2022/01/20 11:13:10;;;;;;;3.03;2.30;;;6.60;83.70;;;;;;5075336;28;20051;-67
2022/01/20 11:15:36;;;;;;;2.45;1.92;;;6.70;82.40;;;;;;5075437;28;20028;-67
2022/01/20 11:18:02;;;;;;;2.90;2.08;;;6.70;81.10;;;;;;5075280;28;20033;-67
2022/01/20 11:20:52;;;;;;;4.38;2.42;;;6.80;80.00;;;;;;5074280;28;20485;-67
2022/01/20 11:23:17;;;;;;;5.47;2.60;;;6.90;80.20;;;;;;5074532;28;20040;-67
2022/01/20 11:25:44;;;;;;;12.80;2.70;;;7.00;80.00;;;;;;5075148;28;20029;-67
2022/01/20 11:28:22;;;;;;;6.28;2.63;;;7.00;78.90;;;;;;5074975;28;20037;-67
2022/01/20 11:31:06;;;;;;;4.65;2.60;;;6.90;78.80;;;;;;5075268;28;20027;-67
2022/01/20 11:33:43;;;;;;;4.45;2.53;;;6.90;77.70;;;;;;5074445;28;20127;-67
2022/01/20 11:36:53;;;;;;;5.22;2.50;;;6.90;77.80;;;;;;5075114;28;20074;-67
2022/01/20 11:39:24;;;;;;;6.00;2.42;;;6.90;77.40;;;;;;5074349;28;20064;-66
2022/01/20 11:41:51;;;;;;;4.15;2.80;;;7.00;76.20;;;;;;5075049;28;20217;-66
2022/01/20 11:44:19;;;;;;;15.65;2.58;;;7.00;75.10;;;;;;5074369;28;20028;-66
2022/01/20 11:46:49;;;;;;;5.63;2.08;;;7.00;75.00;;;;;;5074818;28;20501;-66
2022/01/20 11:49:18;;;;;;;8.52;2.65;;;7.10;73.90;;;;;;5074367;28;20082;-66
2022/01/20 11:51:58;;;;;;;6.72;2.22;;;7.10;73.40;;;;;;5074823;28;20024;-68
2022/01/20 11:54:23;;;;;;;4.55;2.33;;;7.20;72.10;;;;;;5074306;28;20090;-67
2022/01/20 11:56:49;;;;;;;5.72;2.10;;;7.20;72.50;;;;;;5074148;28;20513;-66
2022/01/20 11:59:15;;;;;;;4.10;1.92;;;7.20;70.60;;;;;;5055889;28;20028;-66
2022/01/20 12:01:55;;;;;;;4.25;2.17;;;7.20;70.90;;;;;;5074520;28;20067;-67
2022/01/20 12:04:31;;;;;;;5.07;2.38;;;7.20;70.70;;;;;;5073671;28;20060;-67
2022/01/20 12:06:56;;;;;;;2.80;1.95;;;7.20;70.50;;;;;;5074367;28;20074;-66
2022/01/20 12:09:35;;;;;;;6.88;2.20;;;7.20;69.80;;;;;;5073472;28;20025;-66
2022/01/20 12:12:03;;;;;;;4.32;1.80;;;7.10;69.40;;;;;;5074337;28;20419;-67
2022/01/20 12:14:35;;;;;;;4.10;2.20;;;7.20;69.70;;;;;;5055684;28;20381;-66
2022/01/20 12:17:07;;;;;;;4.35;2.13;;;7.20;69.00;;;;;;5074130;28;20048;-67
2022/01/20 12:19:33;;;;;;;4.70;2.15;;;7.30;69.40;;;;;;5072472;28;20033;-66
2022/01/20 12:22:01;;;;;;;5.30;2.10;;;7.20;68.00;;;;;;5074042;28;20028;-67
2022/01/20 12:24:26;;;;;;;4.30;2.20;;;7.20;68.50;;;;;;5073231;28;20039;-66
2022/01/20 12:26:52;;;;;;;3.45;2.00;;;7.20;67.30;;;;;;5073935;28;20028;-66
2022/01/20 12:29:18;;;;;;;3.97;2.08;;;7.20;67.80;;;;;;5073538;28;20078;-66
2022/01/20 12:31:53;;;;;;;3.85;1.98;;;7.20;67.90;;;;;;5074176;28;20056;-67
2022/01/20 12:34:19;;;;;;;6.25;1.88;;;7.20;67.60;;;;;;5055470;28;20032;-66
2022/01/20 12:36:55;;;;;;;5.18;2.03;;;7.30;67.60;;;;;;5073867;28;20043;-67
2022/01/20 12:39:23;;;;;;;3.60;1.75;;;7.30;67.40;;;;;;5073197;28;20032;-66
2022/01/20 12:42:00;;;;;;;3.05;1.90;;;7.40;67.40;;;;;;5073625;28;20052;-67
2022/01/20 12:44:54;;;;;;;5.47;1.92;;;7.40;65.90;;;;;;5072890;28;20488;-67
2022/01/20 12:47:27;;;;;;;6.28;2.33;;;7.30;66.10;;;;;;5072764;28;20469;-67
2022/01/20 12:49:58;;;;;;;5.07;2.25;;;7.30;66.40;;;;;;5073578;28;20024;-67
2022/01/20 12:52:23;;;;;;;5.77;2.13;;;7.30;66.90;;;;;;5073035;28;20024;-66
2022/01/20 12:54:50;;;;;;;2.17;1.65;;;7.30;66.70;;;;;;5072972;28;20257;-66
2022/01/20 12:57:17;;;;;;;3.60;1.90;;;7.30;66.80;;;;;;5073342;28;20033;-68
2022/01/20 12:59:44;;;;;;;3.67;1.95;;;7.20;66.80;;;;;;5073171;28;20111;-67
2022/01/20 13:02:22;;;;;;;4.32;2.10;;;7.10;67.60;;;;;;5073136;28;20128;-67
2022/01/20 13:04:54;;;;;;;5.68;2.50;;;7.10;68.10;;;;;;5073564;28;20453;-65
2022/01/20 13:07:19;;;;;;;5.40;2.10;;;6.90;68.60;;;;;;5072624;28;20033;-66
2022/01/20 13:09:59;;;;;;;6.07;2.05;;;6.80;69.30;;;;;;5073097;28;20039;-67
2022/01/20 13:12:40;;;;;;;6.45;2.80;;;6.70;70.00;;;;;;5072431;28;20035;-68
2022/01/20 13:15:26;;;;;;;5.25;2.20;;;6.60;70.30;;;;;;5073080;28;20020;-67
2022/01/20 13:18:05;;;;;;;5.05;2.65;;;6.60;70.90;;;;;;5072622;28;20091;-66
2022/01/20 13:20:31;;;;;;;5.10;2.30;;;6.60;70.70;;;;;;5072505;28;20086;-67
2022/01/20 13:23:09;;;;;;;3.47;1.95;;;6.60;71.00;;;;;;5073120;28;20032;-66
2022/01/20 13:25:39;;;;;;;6.57;2.20;;;6.60;71.40;;;;;;5072330;28;20575;-66
2022/01/20 13:28:07;;;;;;;4.25;2.40;;;6.60;71.30;;;;;;5072559;28;20500;-66
2022/01/20 13:30:42;;;;;;;5.93;2.47;;;6.60;71.70;;;;;;5071919;28;20111;-67
2022/01/20 13:33:18;;;;;;;3.05;2.03;;;6.60;71.90;;;;;;5072719;28;20031;-66
2022/01/20 13:35:47;;;;;;;5.60;2.03;;;6.60;71.60;;;;;;5072173;28;20035;-66
2022/01/20 13:38:13;;;;;;;3.67;2.30;;;6.60;71.40;;;;;;5072729;28;20035;-66
2022/01/20 13:40:46;;;;;;;6.25;2.28;;;6.60;70.90;;;;;;5071870;28;20075;-66
2022/01/20 13:46:06;;;;;;;3.58;2.00;;;6.60;70.90;;;;;;5072310;28;20035;-67
2022/01/20 13:48:33;;;;;;;6.60;2.40;;;6.60;70.50;;;;;;5071979;28;20040;-66
2022/01/20 13:51:01;;;;;;;7.57;2.22;;;6.60;71.10;;;;;;5072081;28;20153;-66
2022/01/20 13:53:53;;;;;;;6.07;2.83;;;6.60;71.20;;;;;;5072179;28;20024;-67
2022/01/20 13:56:19;;;;;;;6.13;2.30;;;6.60;70.80;;;;;;5072390;28;20129;-66